Time;durP1;ratioP1;P1;durP2;ratioP2;P2;SDS_P1;SDS_P2;PMS_P1;PMS_P2;Temp;Humidity;BMP_temperature;BMP_pressure;BME280_temperature;BME280_humidity;BME280_pressure;Samples;Min_cycle;Max_cycle;Signal;HPM_P1;HPM_P2
2022/06/21 00:00:08;;;;;;;12.07;5.80;;;;;;;10.30;94.11;99369.97;5044766;28;20029;-56
2022/06/21 00:02:33;;;;;;;11.95;6.22;;;;;;;10.22;92.81;99364.97;5067899;28;20376;-55
2022/06/21 00:04:59;;;;;;;14.18;5.30;;;;;;;10.00;92.88;99360.22;5044516;28;20029;-55
2022/06/21 00:07:26;;;;;;;16.08;6.38;;;;;;;10.02;92.58;99363.50;5058688;28;20035;-56
2022/06/21 00:09:52;;;;;;;13.68;5.63;;;;;;;10.19;93.53;99362.78;5040640;28;20071;-56
2022/06/21 00:12:18;;;;;;;21.73;6.03;;;;;;;10.06;92.39;99363.81;5066662;28;20471;-55
2022/06/21 00:14:43;;;;;;;18.35;6.40;;;;;;;9.91;93.59;99362.47;5068059;28;20107;-56
2022/06/21 00:17:11;;;;;;;12.02;5.50;;;;;;;9.93;93.95;99355.03;5068541;28;20099;-56
2022/06/21 00:19:37;;;;;;;14.38;6.00;;;;;;;9.81;93.97;99362.25;5038667;28;20028;-56
2022/06/21 00:22:03;;;;;;;12.23;6.60;;;;;;;9.88;94.43;99367.47;5066524;28;20029;-55
2022/06/21 00:24:28;;;;;;;14.18;6.03;;;;;;;9.97;93.34;99376.78;5065977;28;20111;-57
2022/06/21 00:26:54;;;;;;;11.90;6.22;;;;;;;9.93;94.05;99367.56;5067752;28;20718;-56
2022/06/21 00:29:19;;;;;;;11.90;7.05;;;;;;;9.77;95.05;99365.63;5067834;28;20086;-55
2022/06/21 00:31:47;;;;;;;14.68;6.28;;;;;;;9.95;96.64;99368.16;5068222;28;20084;-56
2022/06/21 00:34:14;;;;;;;13.65;6.45;;;;;;;9.89;95.95;99361.06;5048288;28;20027;-55
2022/06/21 00:36:40;;;;;;;10.52;6.60;;;;;;;9.87;95.15;99365.84;5039163;28;20029;-57
2022/06/21 00:39:05;;;;;;;11.30;5.75;;;;;;;9.59;94.94;99372.72;5068454;28;20043;-56
2022/06/21 00:41:47;;;;;;;15.60;6.88;;;;;;;9.53;96.94;99372.81;5067911;28;20067;-54
2022/06/21 00:44:22;;;;;;;10.68;6.30;;;;;;;9.53;95.55;99364.78;5037332;28;20021;-55
2022/06/21 00:46:58;;;;;;;15.63;6.38;;;;;;;9.38;95.57;99366.06;5047443;28;20380;-56
2022/06/21 00:49:29;;;;;;;14.27;6.20;;;;;;;9.48;95.67;99357.47;5049491;28;20086;-56
2022/06/21 00:52:02;;;;;;;20.63;7.00;;;;;;;9.64;95.47;99364.81;5017255;28;20059;-56
2022/06/21 00:54:36;;;;;;;15.55;6.75;;;;;;;9.61;95.80;99359.94;5026154;28;20067;-56
2022/06/21 00:57:04;;;;;;;14.13;5.80;;;;;;;9.43;94.95;99354.66;5029395;28;20054;-56
2022/06/21 00:59:31;;;;;;;11.68;6.50;;;;;;;9.57;96.28;99349.91;5023474;28;20056;-55
2022/06/21 01:01:59;;;;;;;14.80;6.40;;;;;;;9.45;95.25;99350.72;5066605;28;20032;-56
2022/06/21 01:04:35;;;;;;;14.90;5.72;;;;;;;9.48;95.93;99352.09;5034821;28;20070;-56
2022/06/21 01:07:02;;;;;;;11.40;6.03;;;;;;;9.48;95.80;99352.94;5045148;28;20021;-53
2022/06/21 01:09:34;;;;;;;8.70;5.18;;;;;;;9.34;94.67;99351.53;5047398;28;20028;-55
2022/06/21 01:12:11;;;;;;;13.07;5.97;;;;;;;9.29;95.79;99354.91;5040819;28;20491;-56
2022/06/21 01:14:40;;;;;;;11.45;6.15;;;;;;;8.89;97.23;99349.34;5046802;28;20025;-56
2022/06/21 01:17:06;;;;;;;12.65;6.82;;;;;;;8.87;98.67;99348.75;5059148;28;20390;-56
2022/06/21 01:19:34;;;;;;;12.57;6.65;;;;;;;8.77;98.83;99341.28;5037495;28;20028;-55
2022/06/21 01:22:06;;;;;;;18.25;7.00;;;;;;;8.79;99.32;99344.56;5066384;28;20032;-56
2022/06/21 01:25:06;;;;;;;11.15;6.20;;;;;;;8.70;99.73;99343.25;5022562;28;20028;-55
2022/06/21 01:27:32;;;;;;;17.20;7.60;;;;;;;8.65;100.00;99348.44;5037520;28;20076;-56
2022/06/21 01:29:57;;;;;;;13.98;7.30;;;;;;;8.75;100.00;99347.91;5066979;28;20471;-55
2022/06/21 01:32:23;;;;;;;10.60;7.05;;;;;;;8.90;99.06;99350.16;5067411;28;20024;-56
2022/06/21 01:34:48;;;;;;;13.48;7.50;;;;;;;8.87;98.14;99351.44;5044329;28;20033;-56
2022/06/21 01:37:26;;;;;;;15.63;7.32;;;;;;;8.88;99.10;99346.91;5067844;28;20032;-56
2022/06/21 01:40:02;;;;;;;10.88;6.20;;;;;;;9.06;99.69;99334.28;5046186;28;20033;-56
2022/06/21 01:42:32;;;;;;;9.30;5.93;;;;;;;9.20;97.61;99334.88;5034384;28;20092;-56
2022/06/21 01:45:01;;;;;;;16.73;7.53;;;;;;;8.60;98.96;99340.31;5065131;28;20028;-56
2022/06/21 01:47:30;;;;;;;15.75;6.95;;;;;;;8.58;100.00;99342.38;5063515;28;20394;-55
2022/06/21 01:49:59;;;;;;;17.75;7.22;;;;;;;8.55;100.00;99342.84;5039770;28;20017;-55
2022/06/21 01:52:27;;;;;;;16.13;7.10;;;;;;;8.72;99.47;99343.84;5048689;28;20379;-55
2022/06/21 01:54:55;;;;;;;22.48;7.13;;;;;;;8.52;98.91;99337.97;5067066;28;20017;-56
2022/06/21 01:57:20;;;;;;;11.73;6.68;;;;;;;8.45;99.21;99339.91;5033738;28;20108;-55
2022/06/21 01:59:47;;;;;;;12.00;6.55;;;;;;;8.56;100.00;99339.13;5040809;28;20036;-54
2022/06/21 02:02:21;;;;;;;13.13;6.30;;;;;;;8.36;99.73;99342.84;5036308;28;20023;-56
2022/06/21 02:04:53;;;;;;;14.07;6.95;;;;;;;8.11;100.00;99342.97;5044180;28;20041;-56
2022/06/21 02:07:21;;;;;;;10.35;6.22;;;;;;;8.08;100.00;99331.91;5067412;28;20119;-55
2022/06/21 02:10:01;;;;;;;14.43;6.72;;;;;;;8.20;100.00;99330.91;5038997;28;20098;-55
2022/06/21 02:12:27;;;;;;;15.18;7.43;;;;;;;8.35;100.00;99338.53;5048362;28;20104;-56
2022/06/21 02:14:53;;;;;;;12.90;7.60;;;;;;;8.41;100.00;99339.50;5052256;28;20029;-55
2022/06/21 02:17:29;;;;;;;17.45;7.45;;;;;;;8.34;100.00;99336.13;5029967;28;20074;-56
2022/06/21 02:20:04;;;;;;;10.80;5.88;;;;;;;8.19;99.95;99328.50;5019651;28;20104;-55
2022/06/21 02:22:30;;;;;;;8.95;6.22;;;;;;;8.11;100.00;99324.28;5071528;28;20033;-55
2022/06/21 02:24:55;;;;;;;17.20;6.25;;;;;;;7.97;100.00;99323.59;5051188;28;20028;-56
2022/06/21 02:27:23;;;;;;;10.88;6.55;;;;;;;7.77;100.00;99325.69;5036094;28;20023;-56
2022/06/21 02:29:54;;;;;;;16.58;7.10;;;;;;;7.89;100.00;99323.09;5020856;28;20041;-56
2022/06/21 02:32:32;;;;;;;20.58;7.55;;;;;;;7.97;100.00;99306.78;5069763;28;20802;-55
2022/06/21 02:35:26;;;;;;;16.45;6.65;;;;;;;7.93;100.00;99314.41;5052052;28;20039;-55
2022/06/21 02:37:53;;;;;;;14.10;6.20;;;;;;;7.84;100.00;99314.91;5048542;28;20127;-56
2022/06/21 02:40:21;;;;;;;16.25;7.35;;;;;;;7.68;100.00;99309.13;5025843;28;20029;-55
2022/06/21 02:42:47;;;;;;;20.42;7.90;;;;;;;7.73;100.00;99313.81;5069939;28;20093;-54
2022/06/21 02:45:20;;;;;;;13.38;7.95;;;;;;;7.95;100.00;99309.66;5069217;28;20029;-56
2022/06/21 02:47:45;;;;;;;18.60;8.15;;;;;;;8.08;100.00;99306.00;5069144;28;20470;-53
2022/06/21 02:50:36;;;;;;;12.02;7.05;;;;;;;7.89;100.00;99313.22;5044440;28;20025;-56
2022/06/21 02:53:04;;;;;;;17.23;7.68;;;;;;;7.63;100.00;99308.97;5067118;28;20501;-53
2022/06/21 02:55:40;;;;;;;13.27;8.20;;;;;;;7.53;100.00;99306.81;5051075;28;20039;-55
2022/06/21 02:58:21;;;;;;;17.40;8.30;;;;;;;7.45;100.00;99301.78;5051826;28;20112;-54
2022/06/21 03:00:46;;;;;;;;;;;;;;;7.89;100.00;99302.56;5070055;28;20032;-53
2022/06/21 03:03:16;;;;;;;24.70;9.27;;;;;;;7.93;100.00;99298.38;5035740;28;19967;-55
2022/06/21 03:05:42;;;;;;;12.88;8.10;;;;;;;8.02;100.00;99301.59;5063716;28;20036;-56
2022/06/21 03:08:07;;;;;;;14.02;8.55;;;;;;;8.21;100.00;99302.34;5040116;28;20614;-55
2022/06/21 03:10:38;;;;;;;14.75;7.50;;;;;;;8.18;100.00;99303.63;5038065;28;20049;-54
2022/06/21 03:13:08;;;;;;;18.23;8.02;;;;;;;8.31;100.00;99302.66;5025050;28;20037;-57
2022/06/21 03:15:34;;;;;;;17.05;7.50;;;;;;;8.13;97.71;99297.34;5026019;28;20047;-55
2022/06/21 03:18:11;;;;;;;17.85;7.30;;;;;;;8.16;100.00;99305.72;5049545;28;20467;-55
2022/06/21 03:20:37;;;;;;;14.73;7.00;;;;;;;7.98;99.68;99308.41;5031284;28;20063;-56
2022/06/21 03:23:03;;;;;;;16.70;6.93;;;;;;;7.87;99.91;99309.97;5048947;28;20056;-56
2022/06/21 03:25:39;;;;;;;11.43;7.07;;;;;;;7.93;100.00;99292.25;5050005;28;20107;-55
2022/06/21 03:28:25;;;;;;;18.92;6.07;;;;;;;7.72;99.88;99293.50;5021288;28;20079;-55
2022/06/21 03:30:54;;;;;;;16.20;6.32;;;;;;;7.56;99.44;99302.91;5044410;28;20051;-54
2022/06/21 03:33:19;;;;;;;15.27;7.35;;;;;;;7.45;100.00;99306.31;5030876;28;20064;-56
2022/06/21 03:35:45;;;;;;;13.68;6.55;;;;;;;7.45;100.00;99293.78;5049176;28;20033;-55
2022/06/21 03:38:11;;;;;;;11.85;6.22;;;;;;;7.52;100.00;99297.19;5010255;28;20070;-55
2022/06/21 03:43:48;;;;;;;12.63;6.93;;;;;;;7.70;100.00;99298.25;5022074;28;20103;-55
2022/06/21 03:46:18;;;;;;;13.82;6.82;;;;;;;7.67;100.00;99299.50;5041455;28;20216;-55
2022/06/21 03:48:55;;;;;;;20.42;7.00;;;;;;;7.77;100.00;99304.34;5001940;28;20064;-56
2022/06/21 03:51:25;;;;;;;17.58;7.20;;;;;;;7.84;100.00;99293.56;5015939;28;20072;-55
2022/06/21 03:53:56;;;;;;;12.43;7.28;;;;;;;7.87;99.88;99299.28;5027499;28;20464;-54
2022/06/21 03:56:53;;;;;;;16.52;6.25;;;;;;;7.68;98.06;99303.78;5048228;28;20037;-55
2022/06/21 03:59:28;;;;;;;14.57;5.97;;;;;;;7.77;98.02;99307.00;5044968;28;20041;-55
2022/06/21 04:01:56;;;;;;;15.20;6.40;;;;;;;8.03;98.72;99305.06;5049139;28;20437;-55
2022/06/21 04:04:33;;;;;;;20.50;5.95;;;;;;;8.05;97.13;99306.47;5047726;28;20028;-55
2022/06/21 04:07:18;;;;;;;15.20;5.10;;;;;;;7.88;96.20;99308.91;5021337;28;20026;-56
2022/06/21 04:09:49;;;;;;;6.97;5.10;;;;;;;7.64;97.94;99307.13;5053541;28;20052;-55
2022/06/21 04:12:52;;;;;;;22.73;6.00;;;;;;;7.63;98.79;99308.16;5068204;28;20024;-55
2022/06/21 04:15:19;;;;;;;12.95;5.60;;;;;;;7.77;98.55;99307.81;5067341;28;20460;-54
2022/06/21 04:17:57;;;;;;;20.58;7.78;;;;;;;8.11;100.00;99310.09;5068147;28;20067;-55
2022/06/21 04:20:32;;;;;;;21.15;7.90;;;;;;;8.06;100.00;99296.59;5064908;28;20398;-55
2022/06/21 04:23:09;;;;;;;14.73;6.95;;;;;;;8.12;100.00;99301.06;5049276;28;20031;-55
2022/06/21 04:25:41;;;;;;;16.33;8.43;;;;;;;8.20;100.00;99303.41;5042654;28;20038;-54
2022/06/21 04:28:24;;;;;;;144.77;12.65;;;;;;;8.26;100.00;99312.38;5048902;28;20020;-55
2022/06/21 04:31:07;;;;;;;51.60;10.48;;;;;;;8.31;100.00;99300.00;5045989;28;20025;-54
2022/06/21 04:33:35;;;;;;;163.48;13.45;;;;;;;8.21;100.00;99297.84;5061846;28;20067;-54
2022/06/21 04:36:10;;;;;;;45.47;11.93;;;;;;;8.40;100.00;99292.50;5043172;28;20542;-53
2022/06/21 04:38:39;;;;;;;133.43;12.57;;;;;;;8.46;100.00;99290.75;5041853;28;20036;-54
2022/06/21 04:41:07;;;;;;;102.53;12.63;;;;;;;8.63;100.00;99291.75;5029125;28;20021;-54
2022/06/21 04:43:57;;;;;;;76.55;12.65;;;;;;;8.84;100.00;99288.56;5065353;28;20048;-54
2022/06/21 04:46:54;;;;;;;126.50;13.02;;;;;;;8.69;100.00;99279.38;5036571;28;20072;-55
2022/06/21 04:49:22;;;;;;;38.67;12.57;;;;;;;8.97;100.00;99284.06;5049595;28;20052;-55
2022/06/21 04:52:08;;;;;;;72.35;13.65;;;;;;;9.14;100.00;99295.69;5049086;28;20111;-54
2022/06/21 04:54:35;;;;;;;75.95;13.98;;;;;;;9.12;100.00;99299.66;5034610;28;20048;-57
2022/06/21 04:57:16;;;;;;;37.53;13.00;;;;;;;9.38;100.00;99293.03;5045469;28;20099;-53
2022/06/21 04:59:49;;;;;;;73.25;13.50;;;;;;;9.29;100.00;99297.91;5056368;28;20391;-55
2022/06/21 05:02:20;;;;;;;129.32;13.88;;;;;;;9.03;100.00;99305.31;5067062;28;20451;-54
2022/06/21 05:04:46;;;;;;;180.40;14.05;;;;;;;9.00;100.00;99296.97;5067696;28;20128;-54
2022/06/21 05:07:15;;;;;;;44.63;12.63;;;;;;;9.12;100.00;99302.31;5067834;28;20051;-54
2022/06/21 05:09:40;;;;;;;47.67;13.95;;;;;;;9.53;100.00;99285.34;5034851;28;20150;-56
2022/06/21 05:12:31;;;;;;;106.20;14.18;;;;;;;9.40;100.00;99282.91;5049784;28;20119;-55
2022/06/21 05:15:09;;;;;;;48.65;12.95;;;;;;;9.62;100.00;99289.28;5049180;28;20051;-54
2022/06/21 05:17:35;;;;;;;65.03;12.80;;;;;;;9.74;100.00;99291.16;5032785;28;20098;-54
2022/06/21 05:20:03;;;;;;;48.70;13.68;;;;;;;9.96;100.00;99294.00;5067631;28;20028;-53
2022/06/21 05:22:32;;;;;;;141.77;13.65;;;;;;;9.63;100.00;99296.25;5047540;28;20494;-55
2022/06/21 05:24:58;;;;;;;168.02;16.25;;;;;;;9.63;100.00;99293.59;5033589;28;20532;-55
2022/06/21 05:27:38;;;;;;;150.45;16.33;;;;;;;9.68;100.00;99300.91;5066688;28;20028;-54
2022/06/21 05:30:24;;;;;;;147.77;17.80;;;;;;;9.84;100.00;99300.19;5016452;28;20048;-52
2022/06/21 05:32:53;;;;;;;125.22;17.27;;;;;;;9.90;100.00;99306.47;5053609;28;20457;-54
2022/06/21 05:35:26;;;;;;;131.13;16.20;;;;;;;9.85;100.00;99295.66;5044834;28;20021;-55
2022/06/21 05:38:04;;;;;;;74.35;17.13;;;;;;;10.08;100.00;99300.97;5048640;28;20029;-54
2022/06/21 05:40:46;;;;;;;100.70;16.45;;;;;;;9.87;100.00;99317.66;5039359;28;20029;-55
2022/06/21 05:43:14;;;;;;;118.22;17.40;;;;;;;9.72;100.00;99310.91;5041390;28;20083;-54
2022/06/21 05:45:39;;;;;;;93.45;20.13;;;;;;;9.76;100.00;99310.44;5048861;28;20472;-55
2022/06/21 05:48:11;;;;;;;136.00;18.80;;;;;;;9.68;100.00;99315.13;5070866;28;20545;-55
2022/06/21 05:50:37;;;;;;;78.45;19.40;;;;;;;9.63;100.00;99327.56;5026440;28;20555;-55
2022/06/21 05:53:11;;;;;;;106.20;18.92;;;;;;;9.87;100.00;99323.81;5041690;28;20036;-55
2022/06/21 05:55:39;;;;;;;108.03;19.92;;;;;;;9.93;100.00;99322.06;5049942;28;20034;-55
2022/06/21 05:58:21;;;;;;;53.15;18.90;;;;;;;10.08;100.00;99318.88;5029715;28;20021;-55
2022/06/21 06:01:03;;;;;;;48.70;16.95;;;;;;;10.42;100.00;99324.41;5033350;28;20028;-54
2022/06/21 06:03:43;;;;;;;40.10;16.70;;;;;;;10.19;100.00;99327.94;5050110;28;20547;-53
2022/06/21 06:06:12;;;;;;;;;;;;;;;10.44;100.00;99322.31;5071336;28;20051;-54
2022/06/21 06:08:43;;;;;;;27.45;17.50;;;;;;;10.68;100.00;99328.38;5070622;28;19920;-54
2022/06/21 06:11:11;;;;;;;;;;;;;;;10.62;100.00;99326.66;5043919;28;20044;-57
2022/06/21 06:13:39;;;;;;;25.23;15.45;;;;;;;11.15;99.88;99322.72;5052947;28;19999;-54
2022/06/21 06:16:24;;;;;;;22.00;15.27;;;;;;;11.54;97.43;99314.75;5070249;28;20021;-55
2022/06/21 06:18:52;;;;;;;20.00;14.70;;;;;;;11.30;96.07;99322.16;5040225;28;20098;-55
2022/06/21 06:21:24;;;;;;;23.52;14.50;;;;;;;11.25;97.38;99325.56;5070561;28;20028;-55
2022/06/21 06:23:54;;;;;;;25.27;13.88;;;;;;;11.10;98.61;99319.97;5052137;28;20028;-55
2022/06/21 06:26:21;;;;;;;21.63;14.10;;;;;;;11.31;97.84;99313.88;5051322;28;20025;-56
2022/06/21 06:29:06;;;;;;;27.33;15.32;;;;;;;10.46;100.00;99321.03;5070045;28;20032;-54
2022/06/21 06:31:50;;;;;;;22.60;16.92;;;;;;;11.01;100.00;99311.53;5039730;28;20029;-54
2022/06/21 06:34:18;;;;;;;23.05;16.20;;;;;;;12.39;96.64;99301.88;5052614;28;20025;-56
2022/06/21 06:36:47;;;;;;;22.42;14.80;;;;;;;13.11;87.98;99304.16;5053336;28;20455;-54
2022/06/21 06:39:25;;;;;;;22.02;14.23;;;;;;;14.51;83.31;99301.16;5068704;28;20031;-54
2022/06/21 06:41:54;;;;;;;17.73;12.80;;;;;;;15.15;78.97;99308.81;5066875;28;20040;-54
2022/06/21 06:44:21;;;;;;;20.27;12.48;;;;;;;15.01;77.88;99313.91;5042929;28;20467;-55
2022/06/21 06:46:49;;;;;;;21.30;11.93;;;;;;;14.10;78.53;99311.78;5055194;28;20036;-55
2022/06/21 06:49:23;;;;;;;17.33;12.77;;;;;;;14.28;81.08;99318.59;5068090;28;20496;-56
2022/06/21 06:51:55;;;;;;;21.65;12.82;;;;;;;13.52;84.09;99326.03;5025561;28;20378;-55
2022/06/21 06:54:46;;;;;;;19.23;13.40;;;;;;;14.25;81.26;99328.00;5063953;28;20024;-56
2022/06/21 06:57:19;;;;;;;17.17;12.07;;;;;;;15.48;77.10;99326.31;5053666;28;20041;-54
2022/06/21 06:59:45;;;;;;;15.90;11.10;;;;;;;16.64;73.42;99327.28;5051407;28;20032;-55
2022/06/21 07:02:18;;;;;;;19.42;11.40;;;;;;;18.53;66.24;99347.19;5051381;28;20039;-56
2022/06/21 07:04:45;;;;;;;16.73;10.63;;;;;;;18.82;64.30;99354.41;5047023;28;20078;-56
2022/06/21 07:07:19;;;;;;;15.93;9.90;;;;;;;19.95;60.60;99361.56;5021685;28;20028;-56
2022/06/21 07:09:48;;;;;;;16.00;9.50;;;;;;;18.57;64.63;99369.13;5045331;28;20420;-57
2022/06/21 07:12:27;;;;;;;14.93;9.73;;;;;;;21.60;56.04;99370.47;5051733;28;20528;-56
2022/06/21 07:14:52;;;;;;;15.07;9.10;;;;;;;22.54;53.62;99363.78;5049879;28;20039;-55
2022/06/21 07:17:45;;;;;;;13.45;8.48;;;;;;;23.55;51.32;99362.84;5069486;28;20486;-57
2022/06/21 07:20:20;;;;;;;14.15;8.52;;;;;;;24.12;50.82;99354.28;5048399;28;20028;-57
2022/06/21 07:22:45;;;;;;;16.80;8.10;;;;;;;22.46;52.73;99344.66;5069667;28;20081;-56
2022/06/21 07:25:29;;;;;;;11.23;7.85;;;;;;;20.57;57.40;99342.09;5069143;28;20028;-56
2022/06/21 07:27:58;;;;;;;15.90;8.48;;;;;;;23.14;51.15;99332.19;5069852;28;20467;-57
2022/06/21 07:30:26;;;;;;;;;;;;;;;23.50;51.43;99311.03;5052649;28;20029;-56
2022/06/21 07:32:58;;;;;;;12.18;7.57;;;;;;;22.75;51.16;99303.06;5066172;28;20329;-56
2022/06/21 07:35:33;;;;;;;12.50;7.50;;;;;;;23.18;52.29;99305.78;5050969;28;20127;-56
2022/06/21 07:38:28;;;;;;;9.20;6.57;;;;;;;23.64;51.89;99301.50;5036317;28;20009;-57
2022/06/21 07:40:59;;;;;;;12.05;7.13;;;;;;;23.63;50.71;99301.81;5059151;28;20200;-57
2022/06/21 07:43:31;;;;;;;13.98;8.23;;;;;;;22.68;53.16;99294.53;5069281;28;20395;-56
2022/06/21 07:45:58;;;;;;;14.10;8.25;;;;;;;22.98;54.41;99287.31;5069492;28;20054;-56
2022/06/21 07:48:48;;;;;;;16.38;8.80;;;;;;;24.25;50.98;99282.03;5050530;28;20082;-57
2022/06/21 07:51:23;;;;;;;12.15;7.97;;;;;;;22.22;55.38;99279.56;5051673;28;20109;-56
2022/06/21 07:53:52;;;;;;;14.55;8.02;;;;;;;22.84;52.45;99279.28;5067891;28;20078;-56
2022/06/21 07:56:28;;;;;;;11.98;6.13;;;;;;;22.38;53.13;99267.06;5069102;28;20119;-55
2022/06/21 07:59:13;;;;;;;18.50;6.72;;;;;;;20.92;57.67;99255.19;5068791;28;20494;-56
2022/06/21 08:07:17;;;;;;;10.10;5.75;;;;;;;21.52;53.00;99203.78;5050872;28;20035;-54
2022/06/21 08:10:06;;;;;;;10.05;5.47;;;;;;;21.33;53.42;99201.25;5048357;28;20391;-56
2022/06/21 08:12:31;;;;;;;10.88;5.70;;;;;;;20.87;54.30;99197.03;5035793;28;20041;-55
2022/06/21 08:14:59;;;;;;;12.50;5.68;;;;;;;19.81;57.81;99187.47;5066350;28;20027;-55
2022/06/21 08:17:30;;;;;;;12.93;6.25;;;;;;;19.70;59.11;99169.78;5067197;28;20028;-55
2022/06/21 08:20:02;;;;;;;9.32;6.32;;;;;;;20.32;57.33;99161.88;5045321;28;20047;-55
2022/06/21 08:22:31;;;;;;;11.82;6.13;;;;;;;20.11;56.91;99166.16;5046361;28;20040;-55
2022/06/21 08:25:01;;;;;;;11.50;7.85;;;;;;;21.43;56.20;99161.22;5029562;28;20116;-55
2022/06/21 08:27:46;;;;;;;12.55;6.88;;;;;;;20.61;57.36;99157.91;5025579;28;20029;-55
2022/06/21 08:30:33;;;;;;;17.30;7.78;;;;;;;18.60;63.79;99140.56;5050150;28;20099;-54
2022/06/21 08:33:18;;;;;;;12.48;6.70;;;;;;;19.24;61.13;99125.25;5041021;28;20040;-55
2022/06/21 08:36:05;;;;;;;12.35;6.35;;;;;;;18.66;60.53;99128.50;5048594;28;20115;-54
2022/06/21 08:38:32;;;;;;;9.63;5.88;;;;;;;18.97;59.64;99134.22;5046316;28;20114;-53
2022/06/21 08:41:51;;;;;;;17.77;6.55;;;;;;;20.19;56.54;99149.91;5047512;28;20033;-54
2022/06/21 08:44:10;;;;;;;13.00;6.10;;;;;;;21.56;54.92;99143.94;5066320;28;20032;-54
2022/06/21 08:46:44;;;;;;;8.25;5.53;;;;;;;21.02;52.72;99149.50;5050392;28;20035;-54
2022/06/21 08:49:33;;;;;;;16.15;5.97;;;;;;;20.88;55.55;99174.09;5051059;28;20312;-54
2022/06/21 08:51:59;;;;;;;9.85;4.97;;;;;;;21.19;53.36;99165.13;5033547;28;20056;-54
2022/06/21 08:55:11;;;;;;;13.98;6.18;;;;;;;21.59;52.87;99178.78;5065463;28;20068;-53
2022/06/21 08:57:42;;;;;;;10.32;5.60;;;;;;;20.48;52.84;99208.56;5063174;28;20037;-54
2022/06/21 09:00:24;;;;;;;12.35;5.45;;;;;;;20.84;52.25;99211.28;5044278;28;20109;-54
2022/06/21 09:03:17;;;;;;;13.68;5.30;;;;;;;21.29;51.86;99216.66;5044906;28;20036;-56
2022/06/21 09:06:04;;;;;;;8.13;4.93;;;;;;;20.61;51.91;99212.38;5050108;28;22075;-55
2022/06/21 09:09:11;;;;;;;19.10;5.47;;;;;;;20.76;52.14;99219.38;5066721;28;20033;-54
2022/06/21 09:11:47;;;;;;;9.48;4.43;;;;;;;21.29;50.18;99211.19;5023362;28;20072;-55
2022/06/21 09:14:48;;;;;;;14.63;5.20;;;;;;;20.86;52.48;99191.88;5023814;28;20492;-54
2022/06/21 09:17:32;;;;;;;11.00;4.65;;;;;;;21.56;52.17;99190.28;5013645;28;20032;-55
2022/06/21 09:20:17;;;;;;;14.20;4.40;;;;;;;22.26;49.79;99213.09;5049820;28;20104;-54
2022/06/21 09:22:49;;;;;;;13.77;4.78;;;;;;;20.41;54.12;99230.75;5040715;28;20032;-54
2022/06/21 09:25:47;;;;;;;12.10;5.45;;;;;;;21.93;49.41;99218.16;5052926;28;20036;-54
2022/06/21 09:28:31;;;;;;;11.13;4.70;;;;;;;21.23;51.74;99228.78;5048291;28;20029;-54
2022/06/21 09:31:03;;;;;;;10.45;5.00;;;;;;;21.27;51.36;99218.88;5071741;28;20470;-54
2022/06/21 09:33:59;;;;;;;12.98;5.28;;;;;;;21.32;51.40;99215.22;5047133;28;20029;-56
2022/06/21 09:36:35;;;;;;;8.70;4.90;;;;;;;20.95;52.12;99205.56;5070188;28;20079;-54
2022/06/21 09:39:12;;;;;;;9.75;4.15;;;;;;;21.86;50.64;99201.44;5070024;28;20037;-55
2022/06/21 09:41:49;;;;;;;9.60;4.82;;;;;;;23.08;47.60;99199.53;5071742;28;20021;-55
2022/06/21 09:44:40;;;;;;;10.35;4.20;;;;;;;23.46;46.65;99191.34;5054187;28;20510;-55
2022/06/21 09:47:11;;;;;;;9.65;4.10;;;;;;;24.03;44.70;99197.47;5050763;28;20029;-55
2022/06/21 09:49:43;;;;;;;13.65;3.80;;;;;;;23.89;42.70;99193.06;5053596;28;20025;-55
2022/06/21 09:52:17;;;;;;;6.70;3.47;;;;;;;24.61;41.60;99195.75;5071456;28;20467;-56
2022/06/21 09:54:49;;;;;;;9.07;3.55;;;;;;;25.46;41.20;99180.66;5070294;28;20036;-56
2022/06/21 09:57:29;;;;;;;10.30;3.35;;;;;;;24.84;41.20;99181.69;5051656;28;20021;-56
2022/06/21 10:00:31;;;;;;;9.23;3.78;;;;;;;20.65;50.17;99183.41;5070862;28;20172;-55
2022/06/21 10:03:24;;;;;;;11.27;4.28;;;;;;;21.88;49.39;99182.84;5067465;28;20040;-55
2022/06/21 10:06:13;;;;;;;7.90;3.42;;;;;;;22.39;46.12;99186.78;5053102;28;20021;-55
2022/06/21 10:08:57;;;;;;;9.80;3.75;;;;;;;21.29;48.34;99169.47;5066151;28;20036;-55
2022/06/21 10:11:59;;;;;;;11.27;3.50;;;;;;;20.26;50.16;99173.97;5066528;28;20067;-56
2022/06/21 10:14:50;;;;;;;7.28;3.13;;;;;;;20.76;48.72;99171.16;5071570;28;20028;-57
2022/06/21 10:17:32;;;;;;;9.80;3.53;;;;;;;20.89;46.65;99172.19;5026295;28;20020;-56
2022/06/21 10:20:09;;;;;;;7.82;3.20;;;;;;;20.94;47.18;99182.13;5038970;28;20031;-55
2022/06/21 10:22:52;;;;;;;8.23;3.47;;;;;;;20.72;47.13;99170.19;5070278;28;20036;-55
2022/06/21 10:25:39;;;;;;;9.23;4.15;;;;;;;22.10;46.30;99158.16;5047570;28;20173;-54
2022/06/21 10:28:19;;;;;;;8.63;3.95;;;;;;;21.65;46.72;99152.94;5070694;28;20021;-54
2022/06/21 10:31:03;;;;;;;8.30;3.65;;;;;;;20.99;48.88;99157.50;5065102;28;20804;-54
2022/06/21 10:33:41;;;;;;;9.93;4.28;;;;;;;21.44;47.95;99160.09;5064259;28;20059;-54
2022/06/21 10:36:25;;;;;;;8.18;3.47;;;;;;;21.07;48.13;99162.19;5022798;28;20021;-58
2022/06/21 10:39:01;;;;;;;10.48;3.92;;;;;;;19.74;51.17;99157.16;5071159;28;20024;-55
2022/06/21 10:44:44;;;;;;;10.13;3.80;;;;;;;22.63;46.12;99152.69;5068048;28;20051;-53
2022/06/21 10:47:17;;;;;;;6.10;3.50;;;;;;;24.17;43.12;99147.94;5049057;28;20086;-55
2022/06/21 10:49:45;;;;;;;8.65;3.80;;;;;;;22.60;45.23;99149.47;5069790;28;20021;-55
2022/06/21 10:52:21;;;;;;;9.23;4.07;;;;;;;22.59;47.29;99150.59;5068670;28;20459;-55
2022/06/21 10:55:06;;;;;;;9.68;4.15;;;;;;;21.20;49.61;99135.97;5045688;28;20091;-55
2022/06/21 10:58:11;;;;;;;8.63;4.05;;;;;;;21.03;50.45;99136.69;5052105;28;20055;-54
2022/06/21 11:01:21;;;;;;;8.55;4.20;;;;;;;21.08;52.31;99144.72;5040815;28;20466;-57
2022/06/21 11:03:52;;;;;;;10.50;4.43;;;;;;;21.17;52.74;99137.38;5045157;28;20024;-53
2022/06/21 11:06:34;;;;;;;10.02;4.70;;;;;;;20.97;53.96;99137.94;5068900;28;20028;-53
2022/06/21 11:09:08;;;;;;;9.75;4.82;;;;;;;20.98;53.44;99145.00;5048280;28;20493;-56
2022/06/21 11:11:58;;;;;;;10.05;4.55;;;;;;;20.71;54.39;99144.03;5048168;28;20520;-53
2022/06/21 11:15:13;;;;;;;11.05;4.85;;;;;;;20.37;55.99;99150.06;5064709;28;20086;-54
2022/06/21 11:18:16;;;;;;;10.65;5.05;;;;;;;20.64;54.48;99139.06;5058323;28;20037;-54
2022/06/21 11:21:42;;;;;;;6.43;4.35;;;;;;;21.52;54.20;99132.88;5065253;28;20433;-54
2022/06/21 11:24:42;;;;;;;10.45;4.63;;;;;;;21.58;54.13;99119.88;4967861;28;20485;-54
2022/06/21 11:27:08;;;;;;;9.82;4.72;;;;;;;21.55;53.47;99120.53;4975858;28;20345;-55
2022/06/21 11:30:07;;;;;;;14.60;5.07;;;;;;;21.29;54.53;99115.78;5047698;28;20479;-53
2022/06/21 11:32:56;;;;;;;12.13;4.68;;;;;;;21.32;54.38;99117.88;5049985;28;20093;-54
2022/06/21 11:35:34;;;;;;;10.90;5.03;;;;;;;20.12;57.97;99118.78;5068631;28;20553;-53
2022/06/21 11:38:22;;;;;;;11.70;4.90;;;;;;;21.04;55.61;99105.59;5067247;28;20043;-54
2022/06/21 11:41:08;;;;;;;6.13;4.43;;;;;;;21.09;54.65;99094.53;5064340;28;20017;-54
2022/06/21 11:43:59;;;;;;;6.80;4.55;;;;;;;21.15;56.27;99106.13;5048509;28;20039;-53
2022/06/21 11:46:37;;;;;;;11.90;5.35;;;;;;;20.68;56.20;99103.81;5055788;28;20475;-58
2022/06/21 11:49:28;;;;;;;9.88;4.97;;;;;;;21.07;56.28;99096.81;5029594;28;20049;-54
2022/06/21 11:52:04;;;;;;;10.93;5.03;;;;;;;21.37;56.76;99091.56;5062719;28;20423;-54
2022/06/21 11:54:42;;;;;;;9.60;4.63;;;;;;;21.95;52.13;99079.50;5038869;28;20040;-54
2022/06/21 11:57:13;;;;;;;8.07;4.28;;;;;;;21.58;52.54;99081.72;5043241;28;20072;-54
2022/06/21 11:59:57;;;;;;;9.48;4.60;;;;;;;21.96;52.89;99087.34;5050879;28;20024;-55
2022/06/21 12:02:43;;;;;;;10.75;4.80;;;;;;;20.75;56.43;99096.00;5039518;28;20025;-56
2022/06/21 12:05:51;;;;;;;8.57;4.50;;;;;;;21.03;57.25;99096.63;5046339;28;20039;-55
2022/06/21 12:08:35;;;;;;;8.15;5.18;;;;;;;19.90;59.18;99117.66;5068063;28;20028;-55
2022/06/21 12:11:11;;;;;;;9.20;5.35;;;;;;;20.26;58.35;99105.94;5056818;28;20059;-55
2022/06/21 12:13:54;;;;;;;8.07;4.40;;;;;;;21.79;54.53;99105.63;5068258;28;20166;-56
2022/06/21 12:16:32;;;;;;;8.57;4.50;;;;;;;20.68;55.86;99090.22;5067718;28;20024;-56
2022/06/21 12:19:00;;;;;;;9.50;4.32;;;;;;;21.27;54.51;99085.31;5066783;28;20040;-56